Time;durP1;ratioP1;P1;durP2;ratioP2;P2;SDS_P1;SDS_P2;PMS_P1;PMS_P2;Temp;Humidity;BMP_temperature;BMP_pressure;BME280_temperature;BME280_humidity;BME280_pressure;Samples;Min_cycle;Max_cycle;Signal;HPM_P1;HPM_P2
2021/08/19 00:02:20;;;;;;;;;;;14.30;99.90;;;;;;5112330;28;19915;-75
2021/08/19 00:04:46;;;;;;;;;;;14.30;99.90;;;;;;5112181;28;19908;-75
2021/08/19 00:07:11;;;;;;;;;;;14.30;99.90;;;;;;5111264;28;19919;-75
2021/08/19 00:09:37;;;;;;;;;;;14.30;99.90;;;;;;5111992;28;19961;-75
2021/08/19 00:12:08;;;;;;;;;;;14.30;99.90;;;;;;5112191;28;20292;-76
2021/08/19 00:14:35;;;;;;;;;;;14.30;99.90;;;;;;5112084;28;19908;-75
2021/08/19 00:17:01;;;;;;;;;;;14.30;99.90;;;;;;5110370;28;19911;-75
2021/08/19 00:19:26;;;;;;;;;;;14.40;99.90;;;;;;5112016;28;19941;-76
2021/08/19 00:21:52;;;;;;;;;;;14.40;99.90;;;;;;5090115;28;20314;-76
2021/08/19 00:24:17;;;;;;;;;;;14.50;99.90;;;;;;5091640;28;19919;-75
2021/08/19 00:26:43;;;;;;;;;;;14.50;99.90;;;;;;5091186;28;19908;-76
2021/08/19 00:29:08;;;;;;;;;;;14.50;99.90;;;;;;5091552;28;19934;-76
2021/08/19 00:31:34;;;;;;;;;;;14.50;99.90;;;;;;5090146;28;19912;-76
2021/08/19 00:33:59;;;;;;;;;;;14.50;99.90;;;;;;5091511;28;20258;-76
2021/08/19 00:36:25;;;;;;;;;;;14.60;99.90;;;;;;5091384;28;19920;-76
2021/08/19 00:38:50;;;;;;;;;;;14.60;99.90;;;;;;5090626;28;19919;-76
2021/08/19 00:41:16;;;;;;;;;;;14.60;99.90;;;;;;5087846;28;20431;-75
2021/08/19 00:43:41;;;;;;;;;;;14.60;99.90;;;;;;5088242;28;20438;-75
2021/08/19 00:46:23;;;;;;;;;;;14.60;99.90;;;;;;5087752;28;19981;-75
2021/08/19 00:48:48;;;;;;;;;;;14.60;99.90;;;;;;5087924;28;19986;-76
2021/08/19 00:51:14;;;;;;;;;;;14.60;99.90;;;;;;5084563;28;19925;-75
2021/08/19 00:53:40;;;;;;;;;;;14.60;99.90;;;;;;5087914;28;19908;-75
2021/08/19 00:56:05;;;;;;;;;;;14.70;99.90;;;;;;5090684;28;20086;-75
2021/08/19 00:58:32;;;;;;;;;;;14.70;99.90;;;;;;5091357;28;19953;-76
2021/08/19 01:00:58;;;;;;;;;;;14.70;99.90;;;;;;5091212;28;20051;-76
2021/08/19 01:03:23;;;;;;;;;;;14.70;99.90;;;;;;5091329;28;20421;-75
2021/08/19 01:05:49;;;;;;;;;;;14.70;99.90;;;;;;5090856;28;19908;-76
2021/08/19 01:08:14;;;;;;;;;;;14.70;99.90;;;;;;5090902;28;20007;-75
2021/08/19 01:10:40;;;;;;;;;;;14.80;99.90;;;;;;5091158;28;19931;-76
2021/08/19 01:13:05;;;;;;;;;;;14.80;99.90;;;;;;5091225;28;19961;-76
2021/08/19 01:15:31;;;;;;;;;;;14.80;99.90;;;;;;5091130;28;19951;-75
2021/08/19 01:17:59;;;;;;;;;;;14.80;99.90;;;;;;5091204;28;19912;-75
2021/08/19 01:20:29;;;;;;;;;;;14.80;99.90;;;;;;5091857;28;20265;-76
2021/08/19 01:22:56;;;;;;;;;;;14.80;99.90;;;;;;5094840;28;19973;-75
2021/08/19 01:25:22;;;;;;;;;;;14.80;99.90;;;;;;5095121;28;19915;-75
2021/08/19 01:27:48;;;;;;;;;;;14.80;99.90;;;;;;5093240;28;19908;-75
2021/08/19 01:30:14;;;;;;;;;;;14.80;99.90;;;;;;5094943;28;19908;-76
2021/08/19 01:32:39;;;;;;;;;;;14.80;99.90;;;;;;5094774;28;20015;-75
2021/08/19 01:35:05;;;;;;;;;;;14.80;99.90;;;;;;5094733;28;19912;-75
2021/08/19 01:37:30;;;;;;;;;;;14.80;99.90;;;;;;5094556;28;19912;-75
2021/08/19 01:39:56;;;;;;;;;;;14.80;99.90;;;;;;5094736;28;19908;-75
2021/08/19 01:42:22;;;;;;;;;;;14.80;99.90;;;;;;5093461;28;20322;-75
2021/08/19 01:44:47;;;;;;;;;;;14.80;99.90;;;;;;5094610;28;19941;-75
2021/08/19 01:47:14;;;;;;;;;;;14.80;99.90;;;;;;5094065;28;19916;-75
2021/08/19 01:49:41;;;;;;;;;;;14.80;99.90;;;;;;5091885;28;19923;-75
2021/08/19 01:52:07;;;;;;;;;;;14.80;99.90;;;;;;5094215;28;19970;-76
2021/08/19 01:54:32;;;;;;;;;;;14.80;99.90;;;;;;5094494;28;19959;-75
2021/08/19 01:56:58;;;;;;;;;;;14.80;99.90;;;;;;5094009;28;19908;-75
2021/08/19 01:59:27;;;;;;;;;;;14.80;99.90;;;;;;5094454;28;19908;-76
2021/08/19 02:01:52;;;;;;;;;;;14.80;99.90;;;;;;5094109;28;19912;-75
2021/08/19 02:04:18;;;;;;;;;;;14.80;99.90;;;;;;5094169;28;19915;-75
2021/08/19 02:06:43;;;;;;;;;;;14.80;99.90;;;;;;5093866;28;19943;-74
2021/08/19 02:09:09;;;;;;;;;;;14.80;99.90;;;;;;5092923;28;20132;-76
2021/08/19 02:11:34;;;;;;;;;;;14.80;99.90;;;;;;5094084;28;19958;-75
2021/08/19 02:14:00;;;;;;;;;;;14.80;99.90;;;;;;5094114;28;19908;-75
2021/08/19 02:16:25;;;;;;;;;;;14.80;99.90;;;;;;5093644;28;20284;-75
2021/08/19 02:18:51;;;;;;;;;;;14.80;99.90;;;;;;5093959;28;20007;-75
2021/08/19 02:21:16;;;;;;;;;;;14.80;99.90;;;;;;5092387;28;19908;-75
2021/08/19 02:23:42;;;;;;;;;;;14.80;99.90;;;;;;5093851;28;19912;-75
2021/08/19 02:26:07;;;;;;;;;;;14.80;99.90;;;;;;5093598;28;19916;-76
2021/08/19 02:28:33;;;;;;;;;;;14.80;99.90;;;;;;5093890;28;19940;-75
2021/08/19 02:30:58;;;;;;;;;;;14.80;99.90;;;;;;5093164;28;19920;-75
2021/08/19 02:33:24;;;;;;;;;;;14.70;99.90;;;;;;5093689;28;19919;-75
2021/08/19 02:35:49;;;;;;;;;;;14.80;99.90;;;;;;5093755;28;20365;-75
2021/08/19 02:38:15;;;;;;;;;;;14.70;99.90;;;;;;5093608;28;20234;-75
2021/08/19 02:40:40;;;;;;;;;;;14.70;99.90;;;;;;5093668;28;19912;-76
2021/08/19 02:43:07;;;;;;;;;;;14.70;99.90;;;;;;5093597;28;19951;-75
2021/08/19 02:45:33;;;;;;;;;;;14.70;99.90;;;;;;5093462;28;19916;-76
2021/08/19 02:47:58;;;;;;;;;;;14.70;99.90;;;;;;5093038;28;19916;-75
2021/08/19 02:50:24;;;;;;;;;;;14.70;99.90;;;;;;5091841;28;19908;-75
2021/08/19 02:52:50;;;;;;;;;;;14.70;99.90;;;;;;5102425;28;19959;-75
2021/08/19 02:55:15;;;;;;;;;;;14.70;99.90;;;;;;5113753;28;20292;-76
2021/08/19 02:57:41;;;;;;;;;;;14.70;99.90;;;;;;5113470;28;19943;-75
2021/08/19 03:00:07;;;;;;;;;;;14.70;99.90;;;;;;5113769;28;19919;-75
2021/08/19 03:02:32;;;;;;;;;;;14.70;99.90;;;;;;5113673;28;19919;-76
2021/08/19 03:04:58;;;;;;;;;;;14.70;99.90;;;;;;5114923;28;19908;-76
2021/08/19 03:07:24;;;;;;;;;;;14.70;99.90;;;;;;5113916;28;19908;-75
2021/08/19 03:09:49;;;;;;;;;;;14.70;99.90;;;;;;5113450;28;20002;-76
2021/08/19 03:12:15;;;;;;;;;;;14.70;99.90;;;;;;5113275;28;20018;-75
2021/08/19 03:14:40;;;;;;;;;;;14.70;99.90;;;;;;5113780;28;19908;-75
2021/08/19 03:17:07;;;;;;;;;;;14.70;99.90;;;;;;5114101;28;19915;-75
2021/08/19 03:19:34;;;;;;;;;;;14.70;99.90;;;;;;5114150;28;19933;-75
2021/08/19 03:22:00;;;;;;;;;;;14.70;99.90;;;;;;5099659;28;20619;-75
2021/08/19 03:24:26;;;;;;;;;;;14.70;99.90;;;;;;5092971;28;19915;-76
2021/08/19 03:26:52;;;;;;;;;;;14.70;99.90;;;;;;5092663;28;19995;-75
2021/08/19 03:29:17;;;;;;;;;;;14.70;99.90;;;;;;5092912;28;19909;-75
2021/08/19 03:31:43;;;;;;;;;;;14.70;99.90;;;;;;5092601;28;19922;-75
2021/08/19 03:34:08;;;;;;;;;;;14.70;99.90;;;;;;5092792;28;19947;-76
2021/08/19 03:36:33;;;;;;;;;;;14.70;99.90;;;;;;5091261;28;19912;-76
2021/08/19 03:38:59;;;;;;;;;;;14.70;99.90;;;;;;5092819;28;20205;-76
2021/08/19 03:41:25;;;;;;;;;;;14.70;99.90;;;;;;5092305;28;19908;-75
2021/08/19 03:43:51;;;;;;;;;;;14.70;99.90;;;;;;5091548;28;20425;-75
2021/08/19 03:46:18;;;;;;;;;;;14.70;99.90;;;;;;5090673;28;20006;-76
2021/08/19 03:48:44;;;;;;;;;;;14.70;99.90;;;;;;5092381;28;19908;-75
2021/08/19 03:51:09;;;;;;;;;;;14.70;99.90;;;;;;5092039;28;19919;-75
2021/08/19 03:53:36;;;;;;;;;;;14.70;99.90;;;;;;5092114;28;20365;-76
2021/08/19 03:56:02;;;;;;;;;;;14.70;99.90;;;;;;5092086;28;19915;-75
2021/08/19 03:58:28;;;;;;;;;;;14.70;99.90;;;;;;5092433;28;19908;-75
2021/08/19 04:00:53;;;;;;;;;;;14.70;99.90;;;;;;5092342;28;19916;-76
2021/08/19 04:03:19;;;;;;;;;;;14.70;99.90;;;;;;5092271;28;20424;-75
2021/08/19 04:05:44;;;;;;;;;;;14.70;99.90;;;;;;5092487;28;19995;-75
2021/08/19 04:08:10;;;;;;;;;;;14.60;99.90;;;;;;5091932;28;19916;-75
2021/08/19 04:10:35;;;;;;;;;;;14.60;99.90;;;;;;5092178;28;19934;-75
2021/08/19 04:13:01;;;;;;;;;;;14.60;99.90;;;;;;5092125;28;19912;-76
2021/08/19 04:15:26;;;;;;;;;;;14.50;99.90;;;;;;5092207;28;20403;-75
2021/08/19 04:17:52;;;;;;;;;;;14.50;99.90;;;;;;5091727;28;19964;-76
2021/08/19 04:20:18;;;;;;;;;;;14.40;99.90;;;;;;5092089;28;19908;-75
2021/08/19 04:22:44;;;;;;;;;;;14.40;99.90;;;;;;5092520;28;19943;-75
2021/08/19 04:25:10;;;;;;;;;;;14.40;99.90;;;;;;5112408;28;19914;-76
2021/08/19 04:27:35;;;;;;;;;;;14.40;99.90;;;;;;5112007;28;20315;-76
2021/08/19 04:30:01;;;;;;;;;;;14.40;99.90;;;;;;5112369;28;20375;-75
2021/08/19 04:32:26;;;;;;;;;;;14.40;99.90;;;;;;5112068;28;20382;-76
2021/08/19 04:34:52;;;;;;;;;;;14.40;99.90;;;;;;5112226;28;19912;-76
2021/08/19 04:37:17;;;;;;;;;;;14.40;99.90;;;;;;5112170;28;20318;-76
2021/08/19 04:39:43;;;;;;;;;;;14.40;99.90;;;;;;5112261;28;19915;-76
2021/08/19 04:42:08;;;;;;;;;;;14.50;99.90;;;;;;5112105;28;19953;-75
2021/08/19 04:44:34;;;;;;;;;;;14.50;99.90;;;;;;5112085;28;20389;-76
2021/08/19 04:46:59;;;;;;;;;;;14.50;99.90;;;;;;5111705;28;19919;-76
2021/08/19 04:49:25;;;;;;;;;;;14.60;99.90;;;;;;5112113;28;19986;-76
2021/08/19 04:51:51;;;;;;;;;;;14.60;99.90;;;;;;5101757;28;19965;-76
2021/08/19 04:54:16;;;;;;;;;;;14.60;99.90;;;;;;5109528;28;19907;-76
2021/08/19 04:56:42;;;;;;;;;;;14.70;99.90;;;;;;5118525;28;19918;-76
2021/08/19 04:59:08;;;;;;;;;;;14.70;99.90;;;;;;5118857;28;19915;-75
2021/08/19 05:01:34;;;;;;;;;;;14.70;99.90;;;;;;5118676;28;19930;-76
2021/08/19 05:04:00;;;;;;;;;;;14.70;99.90;;;;;;5118860;28;20360;-76
2021/08/19 05:06:27;;;;;;;;;;;14.70;99.90;;;;;;5118466;28;19919;-76
2021/08/19 05:08:52;;;;;;;;;;;14.70;99.90;;;;;;5118586;28;19912;-76
2021/08/19 05:11:18;;;;;;;;;;;14.70;99.90;;;;;;5117198;28;19931;-76
2021/08/19 05:13:44;;;;;;;;;;;14.80;99.90;;;;;;5118734;28;19951;-76
2021/08/19 05:16:09;;;;;;;;;;;14.80;99.90;;;;;;5118247;28;20260;-76
2021/08/19 05:18:35;;;;;;;;;;;14.80;99.90;;;;;;5118643;28;20380;-76
2021/08/19 05:21:00;;;;;;;;;;;14.80;99.90;;;;;;5117898;28;19908;-75
2021/08/19 05:23:26;;;;;;;;;;;14.80;99.90;;;;;;5118435;28;20380;-76
2021/08/19 05:25:52;;;;;;;;;;;14.80;99.90;;;;;;5118496;28;19923;-75
2021/08/19 05:28:17;;;;;;;;;;;14.80;99.90;;;;;;5118117;28;19994;-76
2021/08/19 05:30:42;;;;;;;;;;;14.80;99.90;;;;;;5118232;28;19908;-76
2021/08/19 05:33:08;;;;;;;;;;;14.80;99.90;;;;;;5118315;28;19908;-75
2021/08/19 05:35:34;;;;;;;;;;;14.90;99.90;;;;;;5118228;28;19908;-75
2021/08/19 05:37:59;;;;;;;;;;;14.90;99.90;;;;;;5118131;28;19991;-76
2021/08/19 05:40:25;;;;;;;;;;;14.90;99.90;;;;;;5118288;28;19969;-75
2021/08/19 05:42:50;;;;;;;;;;;14.90;99.90;;;;;;5118382;28;20101;-76
2021/08/19 05:45:15;;;;;;;;;;;15.00;99.90;;;;;;5118091;28;20326;-75
2021/08/19 05:47:41;;;;;;;;;;;15.00;99.90;;;;;;5118005;28;19999;-76
2021/08/19 05:50:10;;;;;;;;;;;15.00;99.90;;;;;;5118254;28;19990;-75
2021/08/19 05:52:40;;;;;;;;;;;15.00;99.90;;;;;;5109663;28;20268;-75
2021/08/19 05:55:06;;;;;;;;;;;15.00;99.90;;;;;;5077575;28;19915;-76
2021/08/19 05:57:31;;;;;;;;;;;15.10;99.90;;;;;;5076044;28;19912;-77
2021/08/19 05:59:57;;;;;;;;;;;15.10;99.90;;;;;;5099682;28;20638;-75
2021/08/19 06:02:22;;;;;;;;;;;15.10;99.90;;;;;;5092910;28;20335;-76
2021/08/19 06:04:48;;;;;;;;;;;15.20;99.90;;;;;;5098558;28;19912;-76
2021/08/19 06:07:13;;;;;;;;;;;15.20;99.90;;;;;;5090543;28;19959;-76
2021/08/19 06:09:39;;;;;;;;;;;15.20;99.90;;;;;;5092685;28;19908;-76
2021/08/19 06:12:05;;;;;;;;;;;15.30;99.90;;;;;;5097565;28;19912;-76
2021/08/19 06:14:30;;;;;;;;;;;15.30;99.90;;;;;;5098557;28;19908;-76
2021/08/19 06:16:56;;;;;;;;;;;15.30;99.90;;;;;;5093777;28;19908;-76
2021/08/19 06:19:21;;;;;;;;;;;15.40;99.90;;;;;;5094325;28;19908;-76
2021/08/19 06:21:47;;;;;;;;;;;15.40;99.90;;;;;;5093872;28;19915;-76
2021/08/19 06:24:12;;;;;;;;;;;15.40;99.90;;;;;;5092862;28;19912;-76
2021/08/19 06:26:38;;;;;;;;;;;15.50;99.90;;;;;;5093533;28;20038;-76
2021/08/19 06:29:03;;;;;;;;;;;15.50;99.90;;;;;;5092293;28;20361;-76
2021/08/19 06:31:29;;;;;;;;;;;15.60;99.90;;;;;;5103665;28;19932;-75
2021/08/19 06:33:55;;;;;;;;;;;15.60;99.90;;;;;;5105433;28;19948;-76
2021/08/19 06:36:20;;;;;;;;;;;15.60;99.90;;;;;;5102523;28;19961;-76
2021/08/19 06:38:46;;;;;;;;;;;15.60;99.90;;;;;;5092009;28;19908;-76
2021/08/19 06:41:11;;;;;;;;;;;15.70;99.90;;;;;;5096092;28;19912;-75
2021/08/19 06:43:37;;;;;;;;;;;15.70;99.90;;;;;;5105682;28;20322;-75
2021/08/19 06:46:02;;;;;;;;;;;15.70;99.90;;;;;;5086848;28;19927;-77
2021/08/19 06:48:28;;;;;;;;;;;15.80;99.90;;;;;;5091675;28;20031;-76
2021/08/19 06:50:53;;;;;;;;;;;15.80;99.90;;;;;;5092122;28;20353;-76
2021/08/19 06:53:19;;;;;;;;;;;15.90;99.90;;;;;;5105802;28;19908;-76
2021/08/19 06:55:44;;;;;;;;;;;15.90;99.90;;;;;;5112017;28;20364;-75
2021/08/19 06:58:10;;;;;;;;;;;16.10;99.90;;;;;;5110698;28;20023;-76
2021/08/19 07:00:35;;;;;;;;;;;16.10;99.90;;;;;;5112445;28;19961;-76
2021/08/19 07:03:01;;;;;;;;;;;16.20;99.90;;;;;;5112837;28;19943;-75
2021/08/19 07:05:26;;;;;;;;;;;16.40;99.90;;;;;;5112184;28;19982;-75
2021/08/19 07:07:58;;;;;;;;;;;16.40;99.90;;;;;;5112257;28;19918;-76
2021/08/19 07:10:24;;;;;;;;;;;16.50;99.90;;;;;;5111911;28;19915;-76
2021/08/19 07:12:49;;;;;;;;;;;16.70;99.90;;;;;;5111764;28;19916;-76
2021/08/19 07:15:15;;;;;;;;;;;16.70;99.90;;;;;;5112197;28;19914;-76
2021/08/19 07:17:40;;;;;;;;;;;16.80;99.90;;;;;;5092161;28;19991;-76
2021/08/19 07:20:06;;;;;;;;;;;16.80;99.90;;;;;;5092180;28;20414;-76
2021/08/19 07:22:32;;;;;;;;;;;16.90;99.90;;;;;;5091808;28;19990;-76
2021/08/19 07:24:58;;;;;;;;;;;16.90;99.90;;;;;;5091737;28;19908;-77
2021/08/19 07:27:23;;;;;;;;;;;17.00;99.90;;;;;;5084645;28;21328;-76
2021/08/19 07:29:49;;;;;;;;;;;17.10;99.90;;;;;;5097368;28;19958;-76
2021/08/19 07:32:19;;;;;;;;;;;17.30;99.90;;;;;;5089266;28;19952;-76
2021/08/19 07:34:44;;;;;;;;;;;17.60;99.90;;;;;;5087988;28;20330;-76
2021/08/19 07:37:10;;;;;;;;;;;18.00;99.90;;;;;;5096700;28;19911;-76
2021/08/19 07:39:36;;;;;;;;;;;18.50;99.90;;;;;;5096795;28;20281;-76
2021/08/19 07:42:02;;;;;;;;;;;19.30;99.90;;;;;;5091793;28;19995;-76
2021/08/19 07:44:27;;;;;;;;;;;19.90;99.90;;;;;;5090253;28;19921;-76
2021/08/19 07:46:53;;;;;;;;;;;20.00;99.90;;;;;;5083631;28;20052;-76
2021/08/19 07:49:20;;;;;;;;;;;20.00;99.90;;;;;;5090592;28;19915;-76
2021/08/19 07:51:46;;;;;;;;;;;20.00;99.90;;;;;;5087798;28;20003;-76
2021/08/19 07:54:12;;;;;;;;;;;20.00;99.90;;;;;;5089287;28;19923;-77
2021/08/19 07:56:38;;;;;;;;;;;20.00;99.90;;;;;;5075355;28;19917;-76
2021/08/19 07:59:03;;;;;;;;;;;19.90;99.90;;;;;;5073413;28;20216;-76
2021/08/19 08:01:29;;;;;;;;;;;19.90;99.90;;;;;;5088730;28;19908;-76
2021/08/19 08:03:54;;;;;;;;;;;19.90;99.90;;;;;;5092071;28;19935;-76
2021/08/19 08:06:20;;;;;;;;;;;20.10;99.90;;;;;;5091311;28;19912;-76
2021/08/19 08:08:45;;;;;;;;;;;20.30;99.90;;;;;;5092134;28;20348;-76
2021/08/19 08:11:11;;;;;;;;;;;20.50;99.90;;;;;;5092037;28;19919;-76
2021/08/19 08:13:36;;;;;;;;;;;20.50;99.90;;;;;;5092220;28;20339;-76
2021/08/19 08:16:02;;;;;;;;;;;20.80;99.90;;;;;;5090085;28;19922;-76
2021/08/19 08:18:28;;;;;;;;;;;20.80;99.90;;;;;;5091623;28;19923;-76
2021/08/19 08:20:54;;;;;;;;;;;20.70;99.90;;;;;;5081301;28;19909;-76
2021/08/19 08:23:20;;;;;;;;;;;20.50;99.90;;;;;;5095736;28;19911;-76
2021/08/19 08:25:46;;;;;;;;;;;20.60;99.90;;;;;;5088734;28;19909;-75
2021/08/19 08:28:13;;;;;;;;;;;20.70;99.90;;;;;;5079668;28;19915;-77
2021/08/19 08:30:40;;;;;;;;;;;20.50;99.90;;;;;;5086253;28;19912;-76
2021/08/19 08:33:07;;;;;;;;;;;20.30;99.90;;;;;;5087542;28;19912;-76
2021/08/19 08:35:38;;;;;;;;;;;20.10;99.90;;;;;;5089044;28;20392;-76
2021/08/19 08:38:06;;;;;;;;;;;20.50;99.90;;;;;;5089587;28;19987;-76
2021/08/19 08:40:36;;;;;;;;;;;21.20;99.90;;;;;;5085585;28;20311;-77
2021/08/19 08:43:02;;;;;;;;;;;21.40;99.90;;;;;;5089540;28;19908;-76
2021/08/19 08:45:28;;;;;;;;;;;20.80;99.90;;;;;;5089686;28;19912;-76
2021/08/19 08:47:54;;;;;;;;;;;20.60;99.90;;;;;;5089787;28;19915;-76
2021/08/19 08:50:19;;;;;;;;;;;20.60;99.90;;;;;;5089895;28;19908;-76
2021/08/19 08:52:45;;;;;;;;;;;20.50;99.90;;;;;;5089493;28;19962;-76
2021/08/19 08:55:11;;;;;;;;;;;20.70;99.90;;;;;;5097839;28;19978;-76
2021/08/19 08:57:36;;;;;;;;;;;21.10;99.90;;;;;;5089675;28;19908;-76
2021/08/19 09:00:06;;;;;;;;;;;21.30;99.90;;;;;;5088755;28;19908;-77
2021/08/19 09:02:31;;;;;;;;;;;21.50;99.90;;;;;;5084821;28;19959;-77
2021/08/19 09:05:23;;;;;;;;;;;21.50;99.90;;;;;;5091941;28;19947;-76
2021/08/19 09:07:59;;;;;;;;;;;21.60;99.90;;;;;;5084820;28;19955;-76
2021/08/19 09:10:25;;;;;;;;;;;21.70;99.90;;;;;;5083324;28;20384;-76
2021/08/19 09:12:52;;;;;;;;;;;21.80;99.90;;;;;;5081816;28;19916;-76
2021/08/19 09:15:19;;;;;;;;;;;22.00;99.90;;;;;;5079494;28;20384;-76
2021/08/19 09:17:44;;;;;;;;;;;22.20;99.90;;;;;;5086968;28;19909;-76
2021/08/19 09:20:11;;;;;;;;;;;22.10;99.90;;;;;;5084508;28;19914;-76
2021/08/19 09:22:53;;;;;;;;;;;22.00;99.90;;;;;;5088121;28;20353;-76
2021/08/19 09:25:23;;;;;;;;;;;21.90;99.90;;;;;;5065986;28;19908;-78
2021/08/19 09:28:07;;;;;;;;;;;21.60;99.90;;;;;;5073658;28;19908;-77
2021/08/19 09:30:32;;;;;;;;;;;21.50;99.90;;;;;;5083847;28;19908;-76
2021/08/19 09:32:58;;;;;;;;;;;21.60;99.90;;;;;;5090990;28;19918;-76
2021/08/19 09:35:24;;;;;;;;;;;21.90;99.90;;;;;;5091254;28;19951;-76
2021/08/19 09:37:51;;;;;;;;;;;21.70;99.90;;;;;;5091063;28;20325;-76
2021/08/19 09:40:17;;;;;;;;;;;21.50;99.90;;;;;;5090009;28;19908;-76
2021/08/19 09:42:43;;;;;;;;;;;21.20;99.90;;;;;;5094364;28;19908;-76
2021/08/19 09:45:19;;;;;;;;;;;21.00;99.90;;;;;;5094087;28;19915;-76
2021/08/19 09:47:45;;;;;;;;;;;20.90;99.90;;;;;;5077015;28;19912;-77
2021/08/19 09:50:15;;;;;;;;;;;20.80;99.90;;;;;;5081306;28;19916;-76
2021/08/19 09:52:41;;;;;;;;;;;20.70;99.90;;;;;;5099263;28;20003;-76
2021/08/19 09:55:22;;;;;;;;;;;20.80;99.90;;;;;;5094852;28;20328;-76
2021/08/19 09:57:48;;;;;;;;;;;20.90;99.90;;;;;;5088507;28;20365;-76
2021/08/19 10:00:25;;;;;;;;;;;20.90;99.90;;;;;;5091676;28;20004;-76
2021/08/19 10:02:51;;;;;;;;;;;20.80;99.90;;;;;;5086389;28;19915;-76
2021/08/19 10:05:17;;;;;;;;;;;20.60;99.90;;;;;;5093037;28;19960;-76
2021/08/19 10:07:43;;;;;;;;;;;20.50;99.90;;;;;;5073351;28;20323;-76
2021/08/19 10:10:09;;;;;;;;;;;20.40;99.90;;;;;;5093737;28;19908;-76
2021/08/19 10:12:37;;;;;;;;;;;20.20;99.90;;;;;;5108351;28;19919;-76
2021/08/19 10:15:03;;;;;;;;;;;20.20;99.90;;;;;;5094576;28;19912;-76
2021/08/19 10:17:29;;;;;;;;;;;20.10;99.90;;;;;;5082870;28;19909;-76
2021/08/19 10:19:54;;;;;;;;;;;20.10;99.90;;;;;;5106441;28;19923;-76
2021/08/19 10:22:22;;;;;;;;;;;20.20;99.90;;;;;;5098316;28;19969;-76
2021/08/19 10:24:51;;;;;;;;;;;20.30;99.90;;;;;;5102114;28;19914;-76
2021/08/19 10:27:21;;;;;;;;;;;20.30;99.90;;;;;;5081782;28;20003;-76
2021/08/19 10:29:59;;;;;;;;;;;20.40;99.90;;;;;;5094870;28;19908;-76
2021/08/19 10:32:28;;;;;;;;;;;20.50;99.90;;;;;;5074384;28;19912;-76
2021/08/19 10:34:54;;;;;;;;;;;20.60;99.90;;;;;;5077748;28;19940;-76
2021/08/19 10:37:19;;;;;;;;;;;20.70;99.90;;;;;;5091349;28;19915;-76
2021/08/19 10:39:45;;;;;;;;;;;20.80;99.90;;;;;;5088436;28;20296;-76
2021/08/19 10:42:11;;;;;;;;;;;20.90;99.90;;;;;;5085622;28;19914;-76
2021/08/19 10:44:44;;;;;;;;;;;20.90;99.90;;;;;;5081868;28;20277;-76
2021/08/19 10:47:30;;;;;;;;;;;21.10;99.90;;;;;;5082266;28;19967;-76
2021/08/19 10:50:15;;;;;;;;;;;21.10;99.90;;;;;;5104374;28;20467;-76
2021/08/19 10:52:47;;;;;;;;;;;21.20;99.90;;;;;;5084081;28;19992;-76
2021/08/19 10:55:13;;;;;;;;;;;21.50;99.90;;;;;;5092388;28;20331;-76
2021/08/19 10:57:55;;;;;;;;;;;21.70;99.90;;;;;;5086012;28;19943;-76
2021/08/19 11:00:36;;;;;;;;;;;21.90;99.90;;;;;;5091283;28;19915;-76
2021/08/19 11:03:01;;;;;;;;;;;22.00;99.90;;;;;;5092673;28;19944;-76
2021/08/19 11:05:27;;;;;;;;;;;21.80;99.90;;;;;;5085693;28;19943;-76
2021/08/19 11:07:52;;;;;;;;;;;21.90;99.90;;;;;;5108455;28;19938;-76
2021/08/19 11:10:22;;;;;;;;;;;22.00;99.90;;;;;;5089640;28;19920;-76
2021/08/19 11:12:47;;;;;;;;;;;22.30;99.90;;;;;;5091923;28;19912;-76
2021/08/19 11:15:13;;;;;;;;;;;22.50;99.90;;;;;;5091408;28;20380;-76
2021/08/19 11:17:48;;;;;;;;;;;22.50;99.90;;;;;;5102548;28;20281;-76
2021/08/19 11:20:21;;;;;;;;;;;22.50;99.90;;;;;;5113226;28;19970;-76
2021/08/19 11:23:06;;;;;;;;;;;22.60;99.90;;;;;;5113173;28;19907;-76
2021/08/19 11:25:34;;;;;;;;;;;22.60;99.90;;;;;;5112740;28;19914;-76
2021/08/19 11:28:15;;;;;;;;;;;22.70;99.90;;;;;;5105539;28;20329;-76
2021/08/19 11:30:44;;;;;;;;;;;22.60;99.90;;;;;;5092514;28;20327;-76
2021/08/19 11:33:15;;;;;;;;;;;22.60;99.90;;;;;;5092576;28;19916;-77
2021/08/19 11:35:43;;;;;;;;;;;22.50;99.90;;;;;;5092719;28;19908;-76
2021/08/19 11:38:16;;;;;;;;;;;22.50;99.90;;;;;;5092607;28;19908;-76
2021/08/19 11:40:42;;;;;;;;;;;22.60;99.90;;;;;;5086995;28;19958;-76
2021/08/19 11:43:18;;;;;;;;;;;22.70;99.90;;;;;;5104021;28;19908;-76
2021/08/19 11:45:43;;;;;;;;;;;22.80;99.90;;;;;;5112733;28;19911;-76
2021/08/19 11:48:10;;;;;;;;;;;22.70;99.90;;;;;;5112705;28;19961;-76
2021/08/19 11:50:36;;;;;;;;;;;22.60;99.90;;;;;;5112565;28;19908;-77
2021/08/19 11:53:02;;;;;;;;;;;22.60;99.90;;;;;;5101278;28;19936;-76
2021/08/19 11:55:28;;;;;;;;;;;22.70;99.90;;;;;;5112579;28;20348;-76
2021/08/19 11:58:13;;;;;;;;;;;22.80;99.90;;;;;;5112310;28;20245;-76
2021/08/19 12:00:53;;;;;;;;;;;22.60;99.90;;;;;;5106169;28;20356;-77
2021/08/19 12:03:19;;;;;;;;;;;22.60;99.90;;;;;;5085010;28;19916;-76
2021/08/19 12:05:44;;;;;;;;;;;22.40;99.90;;;;;;5091911;28;20353;-76
2021/08/19 12:08:10;;;;;;;;;;;22.20;99.90;;;;;;5091588;28;19952;-76
2021/08/19 12:10:36;;;;;;;;;;;22.10;99.90;;;;;;5090595;28;19994;-76
2021/08/19 12:13:02;;;;;;;;;;;22.30;99.90;;;;;;5091804;28;19957;-76
2021/08/19 12:15:27;;;;;;;;;;;22.10;99.90;;;;;;5091971;28;19908;-76
2021/08/19 12:18:06;;;;;;;;;;;22.20;99.90;;;;;;5089609;28;19918;-76
2021/08/19 12:20:32;;;;;;;;;;;22.50;99.90;;;;;;5090376;28;19947;-76
2021/08/19 12:23:17;;;;;;;;;;;22.80;99.90;;;;;;5086370;28;19970;-76
2021/08/19 12:25:43;;;;;;;;;;;23.00;99.90;;;;;;5091192;28;19951;-76
2021/08/19 12:28:09;;;;;;;;;;;23.40;99.90;;;;;;5091439;28;19939;-76
2021/08/19 12:30:35;;;;;;;;;;;23.80;99.90;;;;;;5091756;28;19927;-76
2021/08/19 12:33:04;;;;;;;;;;;24.00;99.90;;;;;;5092140;28;19912;-76
2021/08/19 12:35:30;;;;;;;;;;;24.10;99.90;;;;;;5091514;28;20388;-76
2021/08/19 12:37:57;;;;;;;;;;;24.20;99.90;;;;;;5091338;28;19954;-76
2021/08/19 12:40:33;;;;;;;;;;;24.20;99.90;;;;;;5088213;28;19912;-76
2021/08/19 12:43:06;;;;;;;;;;;24.20;99.90;;;;;;5090532;28;19908;-76
2021/08/19 12:45:32;;;;;;;;;;;24.10;99.90;;;;;;5091345;28;19998;-77
2021/08/19 12:48:08;;;;;;;;;;;24.10;99.90;;;;;;5090972;28;19962;-76
2021/08/19 12:50:34;;;;;;;;;;;23.80;99.90;;;;;;5091377;28;19973;-77
2021/08/19 12:53:06;;;;;;;;;;;23.70;99.70;;;;;;5089208;28;20318;-76
2021/08/19 12:55:32;;;;;;;;;;;23.70;99.90;;;;;;5111676;28;19923;-77
2021/08/19 12:57:59;;;;;;;;;;;23.70;99.90;;;;;;5111420;28;19908;-76
2021/08/19 13:00:28;;;;;;;;;;;23.80;99.90;;;;;;5111509;28;19908;-76
2021/08/19 13:02:54;;;;;;;;;;;23.70;99.90;;;;;;5111667;28;19912;-77
2021/08/19 13:05:21;;;;;;;;;;;23.80;99.70;;;;;;5111580;28;19908;-76
2021/08/19 13:07:47;;;;;;;;;;;23.70;99.00;;;;;;5111376;28;19915;-76
2021/08/19 13:10:14;;;;;;;;;;;23.70;99.30;;;;;;5111660;28;19911;-76
2021/08/19 13:12:39;;;;;;;;;;;23.60;99.90;;;;;;5111571;28;19916;-76
2021/08/19 13:15:05;;;;;;;;;;;23.60;99.90;;;;;;5113581;28;19956;-76
2021/08/19 13:17:31;;;;;;;;;;;23.60;99.50;;;;;;5097566;28;19915;-76
2021/08/19 13:19:57;;;;;;;;;;;23.70;99.90;;;;;;5095146;28;20305;-76
2021/08/19 13:22:22;;;;;;;;;;;23.90;99.90;;;;;;5096337;28;19961;-78
2021/08/19 13:24:49;;;;;;;;;;;24.00;99.90;;;;;;5097413;28;19951;-76
2021/08/19 13:27:15;;;;;;;;;;;24.00;99.90;;;;;;5095108;28;19908;-76
2021/08/19 13:29:41;;;;;;;;;;;24.20;99.90;;;;;;5095453;28;19918;-75
2021/08/19 13:32:07;;;;;;;;;;;24.30;99.90;;;;;;5095487;28;19913;-76
2021/08/19 13:34:32;;;;;;;;;;;24.10;99.90;;;;;;5095379;28;20304;-76
2021/08/19 13:36:58;;;;;;;;;;;24.10;99.90;;;;;;5094884;28;19908;-75
2021/08/19 13:39:25;;;;;;;;;;;24.00;99.90;;;;;;5094988;28;19947;-75
2021/08/19 13:41:51;;;;;;;;;;;24.10;99.90;;;;;;5089270;28;19908;-76
2021/08/19 13:44:16;;;;;;;;;;;24.20;99.90;;;;;;5094623;28;19919;-76
2021/08/19 13:46:42;;;;;;;;;;;24.20;99.90;;;;;;5094430;28;19923;-76
2021/08/19 13:49:07;;;;;;;;;;;24.10;99.90;;;;;;5094636;28;19944;-76
2021/08/19 13:51:33;;;;;;;;;;;24.00;99.90;;;;;;5094886;28;19923;-75
2021/08/19 13:53:58;;;;;;;;;;;23.90;99.90;;;;;;5114007;28;19998;-75
2021/08/19 13:56:25;;;;;;;;;;;23.70;99.90;;;;;;5114700;28;19915;-76
2021/08/19 13:58:50;;;;;;;;;;;23.60;99.90;;;;;;5114892;28;19912;-75
2021/08/19 14:01:16;;;;;;;;;;;23.60;99.60;;;;;;5101856;28;20280;-75
2021/08/19 14:03:41;;;;;;;;;;;23.40;99.90;;;;;;5094251;28;19998;-77
2021/08/19 14:06:07;;;;;;;;;;;23.30;99.90;;;;;;5094014;28;20376;-76
2021/08/19 14:08:34;;;;;;;;;;;23.40;99.90;;;;;;5094356;28;20372;-75
2021/08/19 14:10:59;;;;;;;;;;;23.20;99.70;;;;;;5094211;28;19908;-76
2021/08/19 14:13:25;;;;;;;;;;;22.90;99.90;;;;;;5094005;28;20355;-75
2021/08/19 14:15:50;;;;;;;;;;;22.60;99.90;;;;;;5092689;28;19947;-75